Babinda, Australia
Current Conditions -  °F | °C
As of 10:00 PM on Sunday 21 Dec 2014 (Local Time) from YBCS Reporting Station
Few Clouds Few Clouds  
Wind Chill: 79°   Ceiling: Unl
Heat Index: 82°   Visibility: 6mi
Dew Point: 73°   Wind: 8mph
Humidity: 83%   Direction: 150°SSE
Pressure: 29.85"   Gusts: NA
Location:  17.35°S, 145.92°E
Report Text: YBCS 211200Z 15007KT 9999 FEW025 26/23 Q1011
Loading
Personal Weather Stations






























Interactive Weather Map New forecast layout! Learn more

10-Day Weather Forecast

Advertisements
Track Severe Weather on mobile